ZBM weather

Bromont (Roland Desourdy) Airport
Bromont, Quebec, Canada

Public forecast

Using degrees Celsius for public forecast. Weather courtesy of forecast.io.

Closest aviation weather report (METAR) to Bromont (Roland Desourdy) Airport

Closest report is Franklin County State Airport, 25.9 nm (48.0 km) SW. Retrieved 2019/10/16 23:15 UTC (33 minutes ago):

KFSO 162315Z AUTO 12012G17KT 10SM -RA BKN080 OVC090 15/06 A2964 RMK AO2 T01510055

Closest aviation forecast (TAF) to Bromont (Roland Desourdy) Airport

Closest forecast is MontrĂ©al / Saint-Hubert Airport, 31.6 nm (58.5 km) WNW. Retrieved 2019/10/16 18:42 UTC (5 hours ago):

TAF CYHU 161738Z 1618/1718 14012G22KT P6SM SCT080 BKN120 FM161900 14010G20KT P6SM SCT040 BKN080 OVC200 FM170000 13012G22KT P6SM -SHRA BKN040 OVC080 FM170400 09010G20KT 5SM RA BR SCT010 OVC030 FM170700 06012G22KT 6SM -RA BR BKN008 OVC015 FM170900 03020G35KT 3SM RA BR OVC006 BECMG 1712/1714 01025G40KT RMK FCST BASED ON AUTO OBS NXT FCST BY 170000Z